Time;durP1;ratioP1;P1;durP2;ratioP2;P2;SDS_P1;SDS_P2;PMS_P1;PMS_P2;Temp;Humidity;BMP_temperature;BMP_pressure;BME280_temperature;BME280_humidity;BME280_pressure;Samples;Min_cycle;Max_cycle;Signal;HPM_P1;HPM_P2
2022/09/02 00:02:16;;;;;;;2.10;0.90;;;;;;;13.12;100.00;100289.27;1649759;86;22158;-56
2022/09/02 00:04:44;;;;;;;2.67;1.10;;;;;;;13.12;100.00;100289.27;1645458;86;21164;-56
2022/09/02 00:07:11;;;;;;;4.63;1.17;;;;;;;13.11;100.00;100291.59;1646246;86;22193;-57
2022/09/02 00:09:39;;;;;;;6.30;1.43;;;;;;;13.12;100.00;100295.81;1645708;87;22225;-57
2022/09/02 00:12:07;;;;;;;2.50;0.90;;;;;;;13.09;100.00;100294.90;1646957;87;22481;-57
2022/09/02 00:14:37;;;;;;;2.37;1.03;;;;;;;13.04;100.00;100296.00;1646938;86;22352;-57
2022/09/02 00:17:04;;;;;;;2.50;0.83;;;;;;;13.01;100.00;100296.39;1647026;87;21798;-58
2022/09/02 00:19:31;;;;;;;3.10;1.10;;;;;;;12.92;100.00;100303.62;1646137;86;22155;-58
2022/09/02 00:21:59;;;;;;;2.93;1.10;;;;;;;12.93;100.00;100305.23;1646486;87;21698;-56
2022/09/02 00:24:26;;;;;;;2.83;1.20;;;;;;;12.89;100.00;100306.62;1647303;86;21780;-55
2022/09/02 00:26:54;;;;;;;2.93;1.20;;;;;;;12.85;100.00;100302.29;1647456;87;21726;-57
2022/09/02 00:29:21;;;;;;;4.03;1.23;;;;;;;12.85;100.00;100310.14;1647199;86;21663;-66
2022/09/02 00:31:49;;;;;;;2.70;1.03;;;;;;;12.82;100.00;100307.91;1646721;86;22227;-56
2022/09/02 00:34:16;;;;;;;3.80;1.03;;;;;;;12.78;100.00;100308.50;1647352;86;22496;-56
2022/09/02 00:36:43;;;;;;;2.83;1.03;;;;;;;12.67;100.00;100300.71;1647152;86;21747;-55
2022/09/02 00:39:10;;;;;;;1.90;0.90;;;;;;;12.67;100.00;100300.71;1647172;86;21394;-56
2022/09/02 00:41:38;;;;;;;3.10;1.30;;;;;;;12.70;100.00;100304.76;1646334;86;21701;-65
2022/09/02 00:44:09;;;;;;;2.33;0.70;;;;;;;12.68;100.00;100298.90;1646819;86;22622;-57
2022/09/02 00:46:36;;;;;;;5.50;1.00;;;;;;;12.68;100.00;100302.31;1647200;86;21770;-56
2022/09/02 00:49:31;;;;;;;3.37;0.97;;;;;;;12.70;100.00;100302.14;1646883;87;21639;-56
2022/09/02 00:52:09;;;;;;;2.03;1.10;;;;;;;12.74;100.00;100308.09;1646915;87;21779;-55
2022/09/02 00:54:42;;;;;;;4.47;0.97;;;;;;;12.76;100.00;100311.80;1647239;86;21755;-56
2022/09/02 00:57:12;;;;;;;2.87;1.10;;;;;;;12.81;100.00;100310.23;1646662;87;21715;-57
2022/09/02 01:00:03;;;;;;;2.40;0.97;;;;;;;12.81;100.00;100314.15;1647427;87;21702;-56
2022/09/02 01:02:30;;;;;;;1.87;0.72;;;;;;;12.81;100.00;100317.27;1647633;87;21767;-66
2022/09/02 01:04:59;;;;;;;1.83;1.10;;;;;;;12.79;100.00;100315.34;1639032;86;21399;-57
2022/09/02 01:07:29;;;;;;;4.33;1.20;;;;;;;12.77;100.00;100318.16;1636533;87;22183;-57
2022/09/02 01:09:57;;;;;;;2.40;1.12;;;;;;;12.71;100.00;100319.44;1636584;87;21697;-56
2022/09/02 01:12:26;;;;;;;3.37;1.10;;;;;;;12.64;100.00;100324.13;1636582;87;21039;-55
2022/09/02 01:14:53;;;;;;;1.80;0.97;;;;;;;12.57;100.00;100325.91;1635730;87;22232;-57
2022/09/02 01:17:21;;;;;;;2.07;0.83;;;;;;;12.52;100.00;100328.81;1636868;87;22578;-56
2022/09/02 01:19:52;;;;;;;3.27;1.13;;;;;;;12.49;100.00;100338.34;1636796;87;22159;-56
2022/09/02 01:22:22;;;;;;;3.10;1.00;;;;;;;12.41;100.00;100333.57;1636056;87;21727;-56
2022/09/02 01:24:50;;;;;;;2.20;1.03;;;;;;;12.38;100.00;100337.88;1635084;87;21091;-65
2022/09/02 01:27:20;;;;;;;2.77;0.90;;;;;;;12.36;100.00;100335.16;1636668;87;22579;-56
2022/09/02 01:29:52;;;;;;;2.43;1.23;;;;;;;12.30;100.00;100339.34;1636649;87;21705;-56
2022/09/02 01:32:20;;;;;;;2.83;1.20;;;;;;;12.30;100.00;100339.34;1636768;86;21829;-56
2022/09/02 01:34:48;;;;;;;2.93;1.20;;;;;;;12.22;100.00;100339.49;1636008;86;22190;-57
2022/09/02 01:37:15;;;;;;;3.83;1.10;;;;;;;12.14;100.00;100347.48;1636923;87;22004;-56
2022/09/02 01:39:43;;;;;;;3.10;1.20;;;;;;;12.07;100.00;100351.35;1636602;86;21688;-56
2022/09/02 01:42:11;;;;;;;2.33;1.33;;;;;;;12.00;100.00;100354.91;1617206;87;22221;-56
2022/09/02 01:44:42;;;;;;;2.57;1.00;;;;;;;11.85;100.00;100358.41;1616412;87;21702;-63
2022/09/02 01:47:14;;;;;;;2.43;1.13;;;;;;;11.83;100.00;100362.20;1636727;87;21737;-56
2022/09/02 01:49:41;;;;;;;2.23;0.90;;;;;;;11.76;100.00;100366.05;1636820;87;21751;-56
2022/09/02 01:52:10;;;;;;;3.90;1.10;;;;;;;11.78;100.00;100364.55;1636553;86;21496;-56
2022/09/02 01:54:38;;;;;;;7.40;1.40;;;;;;;11.79;100.00;100365.68;1635750;87;21749;-56
2022/09/02 01:57:06;;;;;;;2.20;0.93;;;;;;;11.84;100.00;100368.56;1617534;87;22368;-57
2022/09/02 01:59:34;;;;;;;2.50;1.10;;;;;;;11.87;100.00;100373.41;1635872;87;21506;-56
2022/09/02 02:02:01;;;;;;;4.03;1.00;;;;;;;11.81;100.00;100370.20;1636461;87;21434;-57
2022/09/02 02:04:29;;;;;;;3.37;0.93;;;;;;;11.95;100.00;100369.86;1635547;86;21479;-59
2022/09/02 02:06:56;;;;;;;3.43;1.50;;;;;;;11.95;100.00;100371.16;1616501;87;21979;-57
2022/09/02 02:09:24;;;;;;;3.60;1.80;;;;;;;11.93;100.00;100370.53;1635865;87;21442;-56
2022/09/02 02:11:52;;;;;;;5.33;1.23;;;;;;;11.93;100.00;100370.53;1635874;87;22052;-57
2022/09/02 02:14:19;;;;;;;4.27;1.50;;;;;;;11.99;100.00;100367.17;1635631;87;21628;-56
2022/09/02 02:16:48;;;;;;;2.83;1.30;;;;;;;12.01;100.00;100370.89;1635286;87;22026;-57
2022/09/02 02:19:15;;;;;;;4.10;1.50;;;;;;;11.98;100.00;100373.91;1635880;87;21603;-56
2022/09/02 02:21:43;;;;;;;5.20;1.50;;;;;;;12.11;100.00;100373.98;1636076;87;21994;-56
2022/09/02 02:24:11;;;;;;;3.57;1.10;;;;;;;12.11;100.00;100373.98;1635377;87;21704;-66
2022/09/02 02:26:41;;;;;;;3.53;1.53;;;;;;;12.12;100.00;100380.35;1635489;87;21790;-66
2022/09/02 02:29:08;;;;;;;4.40;1.10;;;;;;;12.14;100.00;100387.98;1635618;86;21770;-56
2022/09/02 02:31:37;;;;;;;3.70;1.47;;;;;;;12.10;100.00;100395.91;1635480;87;22361;-58
2022/09/02 02:34:06;;;;;;;4.43;1.50;;;;;;;12.01;100.00;100398.32;1635517;87;21712;-58
2022/09/02 02:36:33;;;;;;;3.07;1.60;;;;;;;12.01;100.00;100398.32;1635462;87;22381;-58
2022/09/02 02:39:00;;;;;;;3.97;1.43;;;;;;;11.72;100.00;100409.71;1635544;86;21688;-55
2022/09/02 02:41:29;;;;;;;4.00;1.90;;;;;;;11.55;100.00;100403.91;1635110;87;21372;-56
2022/09/02 02:43:57;;;;;;;7.73;1.80;;;;;;;11.55;100.00;100403.91;1635717;86;21595;-56
2022/09/02 02:46:25;;;;;;;3.73;1.67;;;;;;;11.38;100.00;100410.67;1635651;87;21606;-67
2022/09/02 02:48:52;;;;;;;5.20;2.00;;;;;;;11.32;100.00;100418.42;1635513;87;21389;-57
2022/09/02 02:51:20;;;;;;;2.97;1.67;;;;;;;11.14;100.00;100430.08;1635564;87;21365;-56
2022/09/02 02:53:49;;;;;;;5.77;2.20;;;;;;;11.14;100.00;100430.08;1635998;87;21391;-65
2022/09/02 02:56:16;;;;;;;4.03;2.00;;;;;;;11.06;100.00;100438.47;1635279;87;22714;-67
2022/09/02 02:58:44;;;;;;;3.67;2.27;;;;;;;11.00;100.00;100435.30;1635880;87;21633;-56
2022/09/02 03:01:13;;;;;;;4.73;2.00;;;;;;;10.93;100.00;100445.14;1636030;87;21394;-56
2022/09/02 03:03:42;;;;;;;4.97;1.97;;;;;;;10.89;100.00;100447.80;1635445;87;22246;-57
2022/09/02 03:06:09;;;;;;;4.27;1.87;;;;;;;10.87;100.00;100452.41;1647307;86;22289;-65
2022/09/02 03:08:37;;;;;;;5.70;2.30;;;;;;;10.83;100.00;100452.92;1649119;86;21923;-56
2022/09/02 03:11:05;;;;;;;4.83;2.17;;;;;;;10.83;100.00;100452.92;1649004;86;21272;-56
2022/09/02 03:13:33;;;;;;;4.30;2.20;;;;;;;10.88;100.00;100459.23;1624038;86;21203;-56
2022/09/02 03:16:03;;;;;;;7.23;2.80;;;;;;;10.94;100.00;100459.80;1648785;86;21261;-55
2022/09/02 03:18:31;;;;;;;6.00;2.23;;;;;;;11.01;100.00;100466.91;1648239;86;21759;-56
2022/09/02 03:20:58;;;;;;;5.57;2.90;;;;;;;11.06;100.00;100482.82;1648995;86;21296;-56
2022/09/02 03:23:26;;;;;;;5.80;2.87;;;;;;;11.06;100.00;100482.82;1649127;86;21345;-56
2022/09/02 03:25:53;;;;;;;4.63;2.27;;;;;;;11.09;100.00;100479.36;1648580;86;21236;-56
2022/09/02 03:28:26;;;;;;;6.03;3.77;;;;;;;12.11;100.00;100488.97;1647939;86;21336;-56
2022/09/02 03:30:54;;;;;;;6.57;3.63;;;;;;;12.11;100.00;100488.97;1648951;86;21415;-56
2022/09/02 03:33:21;;;;;;;8.50;3.70;;;;;;;13.04;100.00;100488.34;1649184;86;21352;-56
2022/09/02 03:35:48;;;;;;;9.33;2.70;;;;;;;14.03;100.00;100486.08;1648942;86;21686;-58
2022/09/02 03:38:16;;;;;;;5.80;2.80;;;;;;;14.98;100.00;100493.72;1648621;86;21775;-57
2022/09/02 03:40:43;;;;;;;4.73;2.50;;;;;;;16.10;100.00;100488.47;1649292;86;21584;-57
2022/09/02 03:43:10;;;;;;;6.67;3.00;;;;;;;17.43;100.00;100481.39;1649412;86;21012;-57
2022/09/02 03:45:40;;;;;;;6.50;2.60;;;;;;;18.74;100.00;100476.69;1649104;86;21043;-61
2022/09/02 03:48:10;;;;;;;5.80;3.00;;;;;;;19.83;100.00;100476.19;1648973;86;21277;-67
2022/09/02 03:50:39;;;;;;;5.00;2.80;;;;;;;20.95;100.00;100473.11;1625554;86;21100;-56
2022/09/02 03:53:08;;;;;;;5.25;2.55;;;;;;;22.00;91.45;100471.01;1624582;86;21023;-56
2022/09/02 03:55:37;;;;;;;5.97;2.90;;;;;;;23.01;76.32;100480.72;1649361;86;21071;-56
2022/09/02 03:58:04;;;;;;;5.43;3.37;;;;;;;23.82;67.02;100476.66;1648160;86;21561;-64
2022/09/02 04:00:33;;;;;;;6.63;3.97;;;;;;;24.58;61.20;100481.14;1649254;86;21313;-56
2022/09/02 04:03:04;;;;;;;10.48;5.60;;;;;;;25.34;56.41;100482.73;1649304;86;28652;-57
2022/09/02 04:05:33;;;;;;;10.98;7.85;;;;;;;25.96;52.55;100482.61;1650175;86;21071;-57
2022/09/02 04:08:01;;;;;;;12.15;7.83;;;;;;;26.51;49.91;100477.58;1649252;86;20960;-66
2022/09/02 04:10:30;;;;;;;11.10;6.22;;;;;;;27.02;47.30;100482.34;1650469;86;21145;-58
2022/09/02 04:12:58;;;;;;;9.75;5.00;;;;;;;27.42;45.09;100487.70;1650423;86;22008;-58
2022/09/02 04:15:26;;;;;;;11.05;4.53;;;;;;;28.03;41.85;100486.77;1649168;86;21015;-56
2022/09/02 04:17:55;;;;;;;6.45;3.83;;;;;;;28.03;41.85;100486.77;1624523;86;21079;-58
2022/09/02 04:20:23;;;;;;;7.62;3.45;;;;;;;28.45;41.76;100490.89;1649440;86;21601;-56
2022/09/02 04:22:50;;;;;;;6.75;3.27;;;;;;;28.91;40.71;100495.39;1649881;86;21074;-57
2022/09/02 04:25:19;;;;;;;5.47;3.72;;;;;;;29.35;39.07;100489.34;1649741;86;22337;-58
2022/09/02 04:27:46;;;;;;;4.85;3.45;;;;;;;29.61;37.40;100484.77;1649336;86;20991;-59
2022/09/02 04:30:15;;;;;;;7.15;3.33;;;;;;;29.64;36.85;100494.35;1648914;86;21525;-57
2022/09/02 04:32:44;;;;;;;4.65;3.20;;;;;;;29.70;36.22;100490.98;1649845;86;21057;-56
2022/09/02 04:35:12;;;;;;;7.15;3.58;;;;;;;29.85;36.01;100495.98;1649834;86;20999;-57
2022/09/02 04:37:41;;;;;;;5.53;3.12;;;;;;;30.18;36.06;100500.56;1649917;86;21342;-67
2022/09/02 04:40:09;;;;;;;6.47;3.30;;;;;;;30.62;35.02;100492.14;1649031;86;22160;-58
2022/09/02 04:42:37;;;;;;;6.12;3.47;;;;;;;31.07;34.25;100495.21;1649476;86;20983;-57
2022/09/02 04:45:06;;;;;;;7.25;3.85;;;;;;;31.51;33.61;100494.13;1649477;86;21075;-54
2022/09/02 04:47:33;;;;;;;4.37;3.12;;;;;;;31.97;32.62;100506.97;1649837;86;21008;-54
2022/09/02 04:50:02;;;;;;;5.47;3.55;;;;;;;32.28;32.00;100506.45;1648433;86;21277;-58
2022/09/02 04:52:30;;;;;;;6.10;3.12;;;;;;;32.56;31.61;100514.96;1649160;86;21046;-54
2022/09/02 04:54:59;;;;;;;6.47;3.75;;;;;;;32.81;30.65;100513.25;1649534;86;21065;-54
2022/09/02 04:57:28;;;;;;;4.80;3.20;;;;;;;32.91;30.53;100512.86;1649309;86;20985;-55
2022/09/02 04:59:56;;;;;;;4.67;3.10;;;;;;;33.26;30.19;100509.38;1647693;86;21050;-54
2022/09/02 05:02:24;;;;;;;6.97;4.17;;;;;;;33.56;29.72;100510.12;1649071;86;21377;-55
2022/09/02 05:04:51;;;;;;;6.47;3.50;;;;;;;33.61;28.96;100525.37;1650149;86;21092;-55
2022/09/02 05:07:20;;;;;;;5.33;3.40;;;;;;;33.61;29.27;100532.91;1649462;86;20991;-55
2022/09/02 05:09:48;;;;;;;6.65;3.90;;;;;;;33.78;28.77;100529.24;1650231;86;20967;-54
2022/09/02 05:12:17;;;;;;;7.87;4.00;;;;;;;33.83;28.71;100527.70;1649806;86;20889;-62
2022/09/02 05:14:47;;;;;;;5.83;3.65;;;;;;;33.97;28.31;100536.06;1649766;86;21387;-55
2022/09/02 05:17:17;;;;;;;6.00;3.80;;;;;;;34.14;28.31;100533.22;1650319;86;21046;-55
2022/09/02 05:19:45;;;;;;;6.35;3.80;;;;;;;34.38;28.06;100537.30;1650400;86;20975;-54
2022/09/02 05:22:13;;;;;;;7.90;3.90;;;;;;;34.67;27.52;100537.48;1649004;86;21060;-64
2022/09/02 05:24:42;;;;;;;7.37;3.70;;;;;;;34.48;26.92;100544.20;1649253;86;22192;-56
2022/09/02 05:27:11;;;;;;;7.42;3.45;;;;;;;34.00;27.68;100545.69;1649874;86;21236;-54
2022/09/02 05:29:39;;;;;;;5.00;3.60;;;;;;;33.54;27.70;100557.55;1650030;86;20972;-55
2022/09/02 05:32:07;;;;;;;6.65;4.10;;;;;;;32.95;28.24;100559.72;1649724;86;20991;-56
2022/09/02 05:34:35;;;;;;;5.42;3.92;;;;;;;32.16;28.84;100561.07;1649172;86;20999;-54
2022/09/02 05:37:03;;;;;;;8.03;3.60;;;;;;;31.11;29.85;100569.66;1649664;86;21127;-55
2022/09/02 05:39:31;;;;;;;7.62;4.50;;;;;;;30.33;30.70;100574.68;1649062;86;22191;-54
2022/09/02 05:41:59;;;;;;;7.05;3.67;;;;;;;29.79;31.68;100575.16;1650123;86;21489;-55
2022/09/02 05:44:28;;;;;;;9.80;3.70;;;;;;;29.18;32.36;100585.85;1649428;86;21454;-62
2022/09/02 05:46:55;;;;;;;5.97;3.70;;;;;;;28.53;33.04;100590.80;1649935;86;21247;-54
2022/09/02 05:49:22;;;;;;;5.33;3.72;;;;;;;28.11;34.00;100597.89;1650277;86;20899;-55
2022/09/02 05:51:55;;;;;;;4.25;2.95;;;;;;;27.70;34.63;100595.77;1649050;86;21168;-53
2022/09/02 05:54:30;;;;;;;7.33;3.17;;;;;;;27.36;34.77;100599.42;1649294;86;20996;-65
2022/09/02 05:57:00;;;;;;;5.20;3.20;;;;;;;27.46;35.46;100597.69;1650118;86;21094;-56
2022/09/02 05:59:29;;;;;;;4.08;2.77;;;;;;;27.92;34.75;100600.59;1650240;86;25934;-56
2022/09/02 06:01:58;;;;;;;5.08;3.45;;;;;;;28.08;33.93;100598.47;1649751;86;20991;-65
2022/09/02 06:04:26;;;;;;;4.97;3.02;;;;;;;27.92;34.13;100601.10;1649070;86;21769;-57
2022/09/02 06:06:53;;;;;;;5.47;3.10;;;;;;;27.70;34.10;100605.14;1652945;86;21160;-55
2022/09/02 06:09:22;;;;;;;8.60;3.27;;;;;;;27.51;34.52;100609.69;1654198;86;20944;-55
2022/09/02 06:11:50;;;;;;;6.25;3.20;;;;;;;27.36;34.64;100608.00;1653151;85;21058;-56
2022/09/02 06:14:23;;;;;;;6.33;3.22;;;;;;;27.33;34.83;100610.70;1652269;86;20932;-56
2022/09/02 06:16:53;;;;;;;7.37;2.98;;;;;;;27.31;34.81;100608.83;1653543;86;21252;-55
2022/09/02 06:19:24;;;;;;;4.15;2.65;;;;;;;27.23;34.93;100614.03;1653026;86;21423;-56
2022/09/02 06:21:52;;;;;;;4.53;3.03;;;;;;;27.24;35.11;100604.91;1653806;86;20959;-66
2022/09/02 06:24:20;;;;;;;5.42;3.08;;;;;;;27.38;35.38;100611.97;1653457;86;21035;-57
2022/09/02 06:26:49;;;;;;;5.33;2.60;;;;;;;27.87;35.44;100610.02;1653905;86;21059;-56
2022/09/02 06:29:17;;;;;;;4.78;2.52;;;;;;;28.71;34.74;100611.92;1653410;86;21223;-56
2022/09/02 06:31:45;;;;;;;5.08;2.67;;;;;;;29.49;33.76;100613.66;1654122;86;20991;-65
2022/09/02 06:34:15;;;;;;;5.15;2.75;;;;;;;30.33;32.36;100601.58;1653507;86;21999;-56
2022/09/02 06:36:43;;;;;;;5.33;2.00;;;;;;;31.04;31.29;100615.65;1653954;85;20991;-56
2022/09/02 06:39:12;;;;;;;5.83;2.60;;;;;;;31.35;30.46;100601.57;1653641;86;21118;-56
2022/09/02 06:41:40;;;;;;;4.65;2.17;;;;;;;31.63;30.07;100607.49;1653025;86;21200;-63
2022/09/02 06:44:10;;;;;;;4.22;1.85;;;;;;;32.15;29.26;100614.78;1653117;86;21018;-58
2022/09/02 06:46:46;;;;;;;4.30;2.30;;;;;;;32.57;28.13;100615.83;1652800;86;21335;-59
2022/09/02 06:49:15;;;;;;;5.70;2.20;;;;;;;32.75;28.00;100613.87;1653381;86;21474;-60
2022/09/02 06:51:44;;;;;;;4.62;1.85;;;;;;;32.78;27.77;100612.44;1652491;86;20943;-65
2022/09/02 06:54:15;;;;;;;5.17;1.90;;;;;;;33.01;26.64;100611.66;1652596;86;21228;-56
2022/09/02 06:56:43;;;;;;;6.45;1.87;;;;;;;32.87;27.16;100619.94;1653207;86;21787;-56
2022/09/02 06:59:10;;;;;;;3.15;1.70;;;;;;;32.54;26.41;100621.86;1652754;85;21457;-62
2022/09/02 07:01:47;;;;;;;3.50;1.70;;;;;;;31.92;27.22;100618.22;1652866;86;21022;-60
2022/09/02 07:07:05;;;;;;;23.07;4.30;;;;;;;31.15;28.55;100625.82;1652302;86;21229;-59
2022/09/02 07:09:33;;;;;;;3.08;1.77;;;;;;;31.46;28.64;100619.58;1652538;86;21444;-65
2022/09/02 07:12:02;;;;;;;3.40;2.00;;;;;;;31.78;27.60;100616.98;1652735;86;20983;-57
2022/09/02 07:14:37;;;;;;;5.35;1.82;;;;;;;31.52;27.49;100621.03;1653085;85;20968;-58
2022/09/02 07:17:04;;;;;;;3.17;2.02;;;;;;;31.13;28.51;100630.71;1652870;86;21059;-57
2022/09/02 07:19:32;;;;;;;3.77;2.37;;;;;;;31.18;28.91;100633.28;1652616;86;22304;-60
2022/09/02 07:22:03;;;;;;;4.00;1.98;;;;;;;31.46;28.71;100627.11;1650985;86;21822;-57
2022/09/02 07:24:30;;;;;;;5.97;2.12;;;;;;;31.66;27.43;100629.74;1653236;86;21057;-57
2022/09/02 07:26:57;;;;;;;5.10;2.55;;;;;;;31.63;27.53;100629.05;1652837;86;21075;-56
2022/09/02 07:29:25;;;;;;;3.22;1.50;;;;;;;31.53;27.63;100626.65;1653057;86;21706;-59
2022/09/02 07:31:52;;;;;;;2.22;1.45;;;;;;;31.35;28.03;100626.38;1653356;86;21233;-56
2022/09/02 07:34:20;;;;;;;3.83;1.90;;;;;;;31.10;28.40;100626.50;1653292;85;21524;-65
2022/09/02 07:36:48;;;;;;;3.70;1.65;;;;;;;31.06;27.55;100629.58;1652871;86;21538;-56
2022/09/02 07:39:18;;;;;;;3.27;1.72;;;;;;;30.72;28.33;100626.42;1653459;86;21026;-58
2022/09/02 07:41:49;;;;;;;2.98;1.40;;;;;;;30.94;28.78;100621.53;1652624;86;21054;-56
2022/09/02 07:44:16;;;;;;;;;;;;;;;31.42;28.01;100619.97;1655668;86;21278;-59
2022/09/02 07:46:43;;;;;;;2.25;1.30;;;;;;;31.72;27.04;100621.75;1652094;86;20429;-56
2022/09/02 07:49:12;;;;;;;3.65;1.57;;;;;;;31.96;26.97;100622.65;1652327;85;21455;-56
2022/09/02 07:51:42;;;;;;;2.12;1.60;;;;;;;31.93;26.60;100625.19;1652523;85;20984;-57
2022/09/02 07:54:10;;;;;;;2.40;1.52;;;;;;;31.49;27.12;100622.44;1653419;85;21064;-56
2022/09/02 07:56:37;;;;;;;2.92;1.55;;;;;;;31.57;26.79;100614.13;1652511;86;21330;-65
2022/09/02 07:59:05;;;;;;;2.20;1.45;;;;;;;31.72;26.88;100621.75;1653411;86;20998;-57
2022/09/02 08:01:35;;;;;;;1.82;1.15;;;;;;;31.47;26.38;100618.47;1652608;86;20951;-58
2022/09/02 08:04:03;;;;;;;3.10;1.62;;;;;;;31.06;26.76;100614.20;1653425;86;21435;-57
2022/09/02 08:06:32;;;;;;;2.35;1.60;;;;;;;30.85;26.70;100613.20;1653034;86;21415;-57
2022/09/02 08:09:00;;;;;;;2.20;1.40;;;;;;;30.96;26.95;100613.16;1652967;86;21302;-55
2022/09/02 08:11:29;;;;;;;3.87;1.20;;;;;;;31.26;26.48;100611.52;1652990;86;20904;-65
2022/09/02 08:13:56;;;;;;;3.85;1.45;;;;;;;31.38;26.61;100609.59;1653222;86;20955;-55
2022/09/02 08:16:25;;;;;;;2.08;1.37;;;;;;;31.73;26.04;100615.25;1653217;86;21599;-57
2022/09/02 08:18:52;;;;;;;2.00;1.45;;;;;;;31.72;25.46;100604.80;1652677;86;20960;-56
2022/09/02 08:21:20;;;;;;;2.50;1.35;;;;;;;31.70;26.24;100611.83;1653724;86;22210;-55
2022/09/02 08:23:49;;;;;;;2.70;1.40;;;;;;;31.76;26.04;100610.34;1651967;86;21563;-56
2022/09/02 08:26:20;;;;;;;2.17;1.52;;;;;;;31.98;25.87;100615.61;1653316;86;21910;-55
2022/09/02 08:28:47;;;;;;;4.03;1.60;;;;;;;31.80;25.59;100613.99;1652246;86;21003;-56
2022/09/02 08:31:15;;;;;;;2.52;1.72;;;;;;;31.16;25.78;100614.49;1652377;85;21609;-55
2022/09/02 08:33:43;;;;;;;2.90;1.62;;;;;;;30.45;26.54;100615.25;1653637;86;21147;-64
2022/09/02 08:36:13;;;;;;;5.92;1.80;;;;;;;30.01;27.46;100614.14;1652061;86;21074;-55
2022/09/02 08:38:41;;;;;;;;;;;;;;;30.09;27.65;100613.17;1654772;86;20950;-55
2022/09/02 08:41:31;;;;;;;3.58;1.55;;;;;;;30.22;27.56;100618.50;1652859;86;20407;-56
2022/09/02 08:46:45;;;;;;;2.12;1.47;;;;;;;30.70;26.95;100619.75;1626534;88;21908;-55
2022/09/02 08:49:24;;;;;;;2.87;1.27;;;;;;;30.69;27.05;100610.88;1654616;86;21036;-57
2022/09/02 08:51:57;;;;;;;2.55;1.30;;;;;;;30.40;27.47;100613.25;1622500;88;21025;-57
2022/09/02 08:54:54;;;;;;;2.65;1.65;;;;;;;30.30;27.64;100615.63;1653827;86;21397;-56
2022/09/02 08:57:25;;;;;;;2.40;1.57;;;;;;;30.45;27.19;100616.59;1654875;86;21631;-58
2022/09/02 08:59:57;;;;;;;2.17;1.20;;;;;;;30.35;26.50;100616.87;1620289;88;21227;-56
2022/09/02 09:02:55;;;;;;;2.47;1.30;;;;;;;30.01;26.93;100612.02;1690815;84;21545;-56
2022/09/02 09:05:46;;;;;;;2.17;1.10;;;;;;;29.89;27.00;100618.45;1689820;84;22258;-57
2022/09/02 09:08:58;;;;;;;1.62;1.07;;;;;;;30.00;26.44;100619.81;1690372;84;21504;-56
2022/09/02 09:11:45;;;;;;;3.05;1.40;;;;;;;29.84;25.99;100615.89;1654640;84;20907;-57
2022/09/02 09:14:32;;;;;;;3.60;1.50;;;;;;;29.54;27.03;100622.94;1689787;83;21192;-56
2022/09/02 09:17:03;;;;;;;3.08;1.50;;;;;;;29.95;27.11;100625.31;1690304;84;21547;-56
2022/09/02 09:19:50;;;;;;;2.52;1.17;;;;;;;30.37;26.31;100615.20;1689985;83;21053;-58
2022/09/02 09:22:20;;;;;;;2.35;1.50;;;;;;;30.41;25.64;100623.69;1690807;84;21011;-56
2022/09/02 09:24:48;;;;;;;1.85;1.10;;;;;;;29.74;26.33;100631.16;1690450;84;20943;-57
2022/09/02 09:27:18;;;;;;;2.45;1.42;;;;;;;29.08;27.39;100625.20;1690164;84;21170;-57
2022/09/02 09:29:48;;;;;;;5.30;4.15;;;;;;;29.18;28.10;100629.59;1690669;84;21456;-56
2022/09/02 09:32:35;;;;;;;2.65;1.70;;;;;;;29.71;27.47;100626.94;1691086;84;21524;-57
2022/09/02 09:35:10;;;;;;;1.70;1.00;;;;;;;30.14;27.83;100619.21;1689664;83;21098;-56
2022/09/02 09:37:40;;;;;;;2.62;1.22;;;;;;;30.40;26.76;100613.25;1690439;83;20998;-57
2022/09/02 09:40:31;;;;;;;2.30;1.10;;;;;;;30.19;26.82;100617.80;1690902;84;21513;-63
2022/09/02 09:43:09;;;;;;;4.60;1.20;;;;;;;30.20;27.26;100616.69;1690855;84;21557;-55
2022/09/02 09:45:37;;;;;;;1.62;1.17;;;;;;;30.52;26.39;100614.81;1663774;85;21474;-58
2022/09/02 09:48:28;;;;;;;5.53;1.30;;;;;;;30.80;25.97;100616.01;1663564;86;20994;-60
2022/09/02 09:51:02;;;;;;;2.67;1.12;;;;;;;30.94;25.62;100618.05;1664167;85;21059;-56
2022/09/02 09:53:34;;;;;;;2.85;1.02;;;;;;;31.08;25.65;100618.75;1663233;86;21497;-57
2022/09/02 09:56:09;;;;;;;13.48;2.10;;;;;;;31.35;24.35;100617.73;1663483;85;21395;-57
2022/09/02 09:58:44;;;;;;;3.37;1.30;;;;;;;31.40;24.69;100620.27;1658203;85;20975;-56
2022/09/02 10:01:25;;;;;;;2.22;1.10;;;;;;;31.56;25.06;100619.29;1663836;86;20967;-57
2022/09/02 10:04:06;;;;;;;2.00;1.20;;;;;;;31.90;24.39;100622.59;1663185;85;21414;-57
2022/09/02 10:06:42;;;;;;;3.27;1.40;;;;;;;32.13;24.29;100616.47;1649433;86;20896;-57
2022/09/02 10:09:24;;;;;;;2.62;1.32;;;;;;;32.31;24.43;100619.91;1663633;85;21066;-64
2022/09/02 10:11:57;;;;;;;1.92;1.27;;;;;;;32.37;24.39;100625.94;1664454;86;21487;-56
2022/09/02 10:14:38;;;;;;;4.30;1.40;;;;;;;32.18;24.49;100618.98;1661172;85;21086;-61
2022/09/02 10:17:20;;;;;;;;;;;;;;;32.14;24.74;100627.48;1665719;85;21035;-60
2022/09/02 10:20:21;;;;;;;2.62;1.45;;;;;;;32.08;24.68;100619.86;1663656;86;21191;-64
2022/09/02 10:22:53;;;;;;;5.25;1.20;;;;;;;31.97;23.56;100627.48;1663966;85;21619;-54
2022/09/02 10:25:41;;;;;;;2.35;1.25;;;;;;;31.98;23.46;100628.53;1663395;84;20951;-57
2022/09/02 10:28:32;;;;;;;1.70;1.00;;;;;;;31.93;23.47;100625.97;1663270;86;20951;-56
2022/09/02 10:31:18;;;;;;;2.72;1.20;;;;;;;31.83;23.67;100620.10;1662740;86;21066;-56
2022/09/02 10:34:12;;;;;;;2.62;1.50;;;;;;;32.04;23.50;100613.53;1663892;85;21241;-56
2022/09/02 10:37:03;;;;;;;2.27;1.40;;;;;;;32.07;23.09;100619.08;1663347;85;21321;-55
2022/09/02 10:39:50;;;;;;;1.55;0.75;;;;;;;31.93;23.73;100626.53;1664253;85;20979;-56
2022/09/02 10:42:58;;;;;;;1.47;1.17;;;;;;;31.78;22.90;100618.33;1663617;86;20994;-64
2022/09/02 10:45:46;;;;;;;2.45;1.10;;;;;;;31.55;22.74;100625.77;1668468;83;21826;-56
2022/09/02 10:48:49;;;;;;;2.33;1.37;;;;;;;31.37;23.43;100626.31;1689656;84;21097;-55
2022/09/02 10:51:46;;;;;;;2.40;1.15;;;;;;;31.30;23.24;100623.80;1690039;84;21462;-61
2022/09/02 10:54:42;;;;;;;1.57;1.00;;;;;;;31.24;23.20;100621.80;1690419;84;21050;-64
2022/09/02 10:57:19;;;;;;;2.27;1.10;;;;;;;31.44;22.68;100611.83;1690761;83;21049;-56
2022/09/02 10:59:55;;;;;;;2.47;1.32;;;;;;;31.72;22.79;100623.66;1690191;84;21465;-56
2022/09/02 11:02:32;;;;;;;2.80;1.20;;;;;;;31.69;23.37;100616.20;1689859;84;21899;-58
2022/09/02 11:05:09;;;;;;;1.95;1.10;;;;;;;31.51;22.72;100616.73;1691137;84;21022;-56
2022/09/02 11:08:01;;;;;;;1.92;1.02;;;;;;;31.11;22.37;100627.55;1690375;84;21019;-66
2022/09/02 11:10:36;;;;;;;2.87;0.85;;;;;;;30.86;23.01;100617.47;1690958;83;20974;-56
2022/09/02 11:13:20;;;;;;;1.30;0.90;;;;;;;30.84;22.80;100618.31;1690422;84;21025;-58
2022/09/02 11:16:13;;;;;;;9.40;1.70;;;;;;;30.76;23.15;100625.25;1689654;84;21459;-57
2022/09/02 11:19:14;;;;;;;1.72;0.88;;;;;;;30.70;22.80;100625.92;1695740;84;20951;-56
2022/09/02 11:22:04;;;;;;;2.45;1.10;;;;;;;30.73;22.88;100618.58;1690515;84;21025;-56
2022/09/02 11:25:10;;;;;;;2.10;0.72;;;;;;;30.84;22.51;100621.83;1690774;84;21011;-57
2022/09/02 11:27:49;;;;;;;1.85;0.80;;;;;;;30.65;22.52;100616.64;1690976;84;21297;-55
2022/09/02 11:30:24;;;;;;;1.82;1.00;;;;;;;30.38;23.18;100628.89;1690912;84;21772;-57
2022/09/02 11:33:11;;;;;;;1.52;1.05;;;;;;;30.25;23.03;100624.63;1671648;83;21023;-65
2022/09/02 11:35:38;;;;;;;4.05;1.20;;;;;;;30.40;22.56;100622.66;1672396;84;21866;-55
2022/09/02 11:38:23;;;;;;;2.47;1.10;;;;;;;30.54;22.66;100620.14;1690650;84;21572;-55
2022/09/02 11:41:31;;;;;;;2.15;1.20;;;;;;;30.61;22.59;100612.98;1690117;84;22275;-56
2022/09/02 11:44:39;;;;;;;3.52;1.40;;;;;;;30.52;22.42;100618.85;1691628;83;21747;-55
2022/09/02 11:47:18;;;;;;;2.47;1.10;;;;;;;30.43;22.57;100612.09;1691180;84;21504;-56
2022/09/02 11:50:11;;;;;;;2.22;1.25;;;;;;;30.12;23.21;100618.73;1690371;83;20896;-59
2022/09/02 11:53:00;;;;;;;1.85;1.00;;;;;;;29.96;22.47;100614.80;1691063;84;20958;-55